Time;durP1;ratioP1;P1;durP2;ratioP2;P2;SDS_P1;SDS_P2;PMS_P1;PMS_P2;Temp;Humidity;BMP_temperature;BMP_pressure;BME280_temperature;BME280_humidity;BME280_pressure;Samples;Min_cycle;Max_cycle;Signal;HPM_P1;HPM_P2
2022/12/09 00:02:03;;;;;;;7.53;2.85;;;;;;;;;;5050927;28;20520;-65
2022/12/09 00:04:30;;;;;;;5.15;2.38;;;;;;;;;;5051888;28;20041;-65
2022/12/09 00:06:56;;;;;;;6.68;2.85;;;;;;;;;;5020175;28;20037;-65
2022/12/09 00:09:24;;;;;;;14.60;3.70;;;;;;;;;;5019454;28;20086;-65
2022/12/09 00:11:51;;;;;;;8.70;2.85;;;;;;;;;;5050868;28;20061;-65
2022/12/09 00:14:18;;;;;;;10.18;3.38;;;;;;;;;;5019108;28;20057;-64
2022/12/09 00:16:44;;;;;;;11.70;3.60;;;;;;;;;;5020606;28;20403;-66
2022/12/09 00:19:11;;;;;;;8.25;2.83;;;;;;;;;;5020303;28;20052;-65
2022/12/09 00:21:38;;;;;;;10.45;2.70;;;;;;;;;;5014593;28;20142;-64
2022/12/09 00:24:06;;;;;;;9.43;2.85;;;;;;;;;;5053816;28;20111;-64
2022/12/09 00:26:33;;;;;;;10.35;3.22;;;;;;;;;;5019344;28;20042;-65
2022/12/09 00:29:00;;;;;;;14.13;3.25;;;;;;;;;;5019693;28;20042;-63
2022/12/09 00:31:29;;;;;;;7.82;2.90;;;;;;;;;;5015591;28;20576;-66
2022/12/09 00:33:57;;;;;;;11.63;3.40;;;;;;;;;;5017585;28;20067;-65
2022/12/09 00:36:24;;;;;;;8.10;3.22;;;;;;;;;;5011160;28;20068;-65
2022/12/09 00:38:51;;;;;;;11.85;3.45;;;;;;;;;;5018983;28;20037;-66
2022/12/09 00:41:18;;;;;;;11.43;3.58;;;;;;;;;;5017699;28;20037;-67
2022/12/09 00:43:45;;;;;;;10.20;2.95;;;;;;;;;;5016323;28;20045;-65
2022/12/09 00:46:13;;;;;;;17.27;4.60;;;;;;;;;;5017361;28;20758;-64
2022/12/09 00:48:40;;;;;;;9.00;3.97;;;;;;;;;;5018295;28;20118;-64
2022/12/09 00:51:07;;;;;;;17.25;5.07;;;;;;;;;;5014512;28;20081;-64
2022/12/09 00:53:34;;;;;;;12.02;5.28;;;;;;;;;;5018628;28;20033;-66
2022/12/09 00:56:01;;;;;;;17.40;6.85;;;;;;;;;;5017283;28;20040;-65
2022/12/09 00:58:27;;;;;;;15.75;6.22;;;;;;;;;;5018865;28;20552;-65
2022/12/09 01:00:54;;;;;;;15.95;4.47;;;;;;;;;;5019602;28;20033;-65
2022/12/09 01:03:21;;;;;;;14.57;4.45;;;;;;;;;;5017555;28;20774;-65
2022/12/09 01:05:48;;;;;;;12.98;4.30;;;;;;;;;;5019374;28;20045;-65
2022/12/09 01:08:15;;;;;;;10.77;4.03;;;;;;;;;;5018042;28;20152;-65
2022/12/09 01:10:43;;;;;;;13.30;4.05;;;;;;;;;;5017569;28;20529;-65
2022/12/09 01:13:10;;;;;;;13.70;4.22;;;;;;;;;;5018459;28;20124;-65
2022/12/09 01:15:37;;;;;;;12.52;4.35;;;;;;;;;;5016715;28;20106;-65
2022/12/09 01:18:05;;;;;;;13.35;4.18;;;;;;;;;;5016849;28;21284;-65
2022/12/09 01:20:32;;;;;;;10.65;4.53;;;;;;;;;;5017988;28;20124;-66
2022/12/09 01:22:59;;;;;;;13.25;4.07;;;;;;;;;;5020107;28;20038;-66
2022/12/09 01:25:26;;;;;;;14.52;3.88;;;;;;;;;;5017075;28;20095;-65
2022/12/09 01:27:53;;;;;;;11.73;3.92;;;;;;;;;;5017140;28;20500;-66
2022/12/09 01:30:19;;;;;;;9.65;3.95;;;;;;;;;;5016725;28;20426;-64
2022/12/09 01:32:46;;;;;;;19.05;4.90;;;;;;;;;;5016368;28;20096;-65
2022/12/09 01:35:13;;;;;;;12.25;3.92;;;;;;;;;;5017719;28;20046;-65
2022/12/09 01:37:40;;;;;;;16.52;5.00;;;;;;;;;;5018375;28;20033;-66
2022/12/09 01:40:08;;;;;;;9.68;4.00;;;;;;;;;;5017617;28;20402;-67
2022/12/09 01:42:35;;;;;;;11.15;3.85;;;;;;;;;;5016694;28;20033;-66
2022/12/09 01:45:29;;;;;;;8.02;3.47;;;;;;;;;;5017802;28;20111;-67
2022/12/09 01:48:14;;;;;;;9.80;4.03;;;;;;;;;;5023716;28;20127;-65
2022/12/09 01:51:01;;;;;;;13.23;4.15;;;;;;;;;;5017140;28;20049;-65
2022/12/09 01:53:30;;;;;;;12.27;4.18;;;;;;;;;;5016164;28;20076;-64
2022/12/09 01:55:59;;;;;;;11.93;3.88;;;;;;;;;;5030990;28;20047;-65
2022/12/09 01:58:26;;;;;;;9.93;4.10;;;;;;;;;;5037969;28;20052;-65
2022/12/09 02:00:53;;;;;;;12.95;4.50;;;;;;;;;;5039004;28;20048;-64
2022/12/09 02:03:19;;;;;;;7.90;3.85;;;;;;;;;;5035555;28;20041;-65
2022/12/09 02:05:47;;;;;;;8.50;3.67;;;;;;;;;;5018904;28;20067;-64
2022/12/09 02:08:15;;;;;;;9.15;3.58;;;;;;;;;;5018027;28;20049;-64
2022/12/09 02:10:48;;;;;;;10.65;3.65;;;;;;;;;;5016217;28;20124;-63
2022/12/09 02:13:22;;;;;;;10.60;3.80;;;;;;;;;;5016123;28;20050;-65
2022/12/09 02:15:58;;;;;;;7.68;3.35;;;;;;;;;;5010636;28;20106;-65
2022/12/09 02:18:25;;;;;;;12.75;3.45;;;;;;;;;;5014558;28;20122;-65
2022/12/09 02:21:04;;;;;;;9.20;3.55;;;;;;;;;;5018047;28;20043;-66
2022/12/09 02:23:51;;;;;;;7.72;3.33;;;;;;;;;;5015460;28;20037;-66
2022/12/09 02:26:21;;;;;;;8.55;3.80;;;;;;;;;;5029000;28;20057;-69
2022/12/09 02:29:03;;;;;;;11.27;3.72;;;;;;;;;;5016235;28;20053;-66
2022/12/09 02:31:29;;;;;;;8.88;3.33;;;;;;;;;;5015041;28;20074;-65
2022/12/09 02:33:59;;;;;;;8.18;3.53;;;;;;;;;;5015647;28;20697;-62
2022/12/09 02:36:27;;;;;;;13.50;5.07;;;;;;;;;;5013670;28;20029;-67
2022/12/09 02:38:54;;;;;;;14.70;4.32;;;;;;;;;;5017769;28;20524;-67
2022/12/09 02:41:26;;;;;;;25.63;6.47;;;;;;;;;;5016381;28;20064;-67
2022/12/09 02:44:19;;;;;;;9.35;4.05;;;;;;;;;;5016890;28;20064;-66
2022/12/09 02:46:46;;;;;;;10.48;4.50;;;;;;;;;;5035518;28;20114;-67
2022/12/09 02:49:14;;;;;;;9.15;3.50;;;;;;;;;;5053629;28;20039;-65
2022/12/09 02:51:42;;;;;;;9.15;3.50;;;;;;;;;;5039126;28;20045;-65
2022/12/09 02:54:11;;;;;;;10.38;3.05;;;;;;;;;;5038652;28;20124;-65
2022/12/09 02:56:39;;;;;;;9.13;2.80;;;;;;;;;;5027425;28;20041;-66
2022/12/09 02:59:05;;;;;;;13.85;2.80;;;;;;;;;;5020340;28;20060;-63
2022/12/09 03:01:36;;;;;;;12.50;3.25;;;;;;;;;;5018138;28;20041;-64
2022/12/09 03:04:04;;;;;;;16.17;3.60;;;;;;;;;;5019566;28;20049;-64
2022/12/09 03:06:36;;;;;;;8.90;3.00;;;;;;;;;;5018341;28;20064;-64
2022/12/09 03:09:17;;;;;;;11.55;3.10;;;;;;;;;;5018674;28;20069;-65
2022/12/09 03:11:44;;;;;;;7.05;3.28;;;;;;;;;;5017219;28;20359;-64
2022/12/09 03:14:15;;;;;;;10.35;3.25;;;;;;;;;;5019623;28;20052;-64
2022/12/09 03:16:54;;;;;;;7.80;3.17;;;;;;;;;;5017825;28;20053;-67
2022/12/09 03:19:30;;;;;;;14.50;4.05;;;;;;;;;;5017669;28;20144;-67
2022/12/09 03:21:58;;;;;;;8.77;3.47;;;;;;;;;;5017447;28;20362;-66
2022/12/09 03:24:27;;;;;;;12.02;3.42;;;;;;;;;;5016622;28;20649;-65
2022/12/09 03:26:54;;;;;;;7.65;3.35;;;;;;;;;;5016217;28;20041;-64
2022/12/09 03:29:23;;;;;;;8.80;3.85;;;;;;;;;;5014450;28;20125;-65
2022/12/09 03:31:50;;;;;;;12.98;4.43;;;;;;;;;;5016889;28;20057;-66
2022/12/09 03:34:19;;;;;;;10.93;4.00;;;;;;;;;;5015348;28;20065;-65
2022/12/09 03:36:48;;;;;;;15.68;4.03;;;;;;;;;;5015093;28;20060;-63
2022/12/09 03:39:16;;;;;;;9.68;3.67;;;;;;;;;;5017279;28;20065;-65
2022/12/09 03:41:47;;;;;;;15.05;4.57;;;;;;;;;;5019455;28;20125;-66
2022/12/09 03:44:14;;;;;;;11.32;4.10;;;;;;;;;;5021338;28;20159;-65
2022/12/09 03:46:40;;;;;;;11.80;4.07;;;;;;;;;;5018492;28;20045;-65
2022/12/09 03:49:08;;;;;;;9.73;3.78;;;;;;;;;;5019716;28;20067;-65
2022/12/09 03:52:00;;;;;;;10.13;3.85;;;;;;;;;;5019238;28;20421;-66
2022/12/09 03:54:29;;;;;;;10.73;4.40;;;;;;;;;;5018614;28;20037;-66
2022/12/09 03:56:57;;;;;;;16.90;5.10;;;;;;;;;;5020513;28;20041;-64
2022/12/09 03:59:25;;;;;;;11.23;4.22;;;;;;;;;;5018125;28;20039;-64
2022/12/09 04:01:52;;;;;;;11.43;4.47;;;;;;;;;;5019387;28;20145;-66
2022/12/09 04:04:19;;;;;;;9.63;4.10;;;;;;;;;;5017345;28;20041;-67
2022/12/09 04:06:46;;;;;;;12.50;4.43;;;;;;;;;;5018572;28;20045;-65
2022/12/09 04:09:13;;;;;;;13.30;4.35;;;;;;;;;;5018564;28;20051;-65
2022/12/09 04:11:39;;;;;;;12.65;4.82;;;;;;;;;;5018785;28;20452;-68
2022/12/09 04:14:06;;;;;;;14.07;5.13;;;;;;;;;;5021209;28;20916;-66
2022/12/09 04:16:33;;;;;;;12.77;4.45;;;;;;;;;;5019594;28;20072;-66
2022/12/09 04:18:59;;;;;;;15.57;5.40;;;;;;;;;;5019698;28;20147;-65
2022/12/09 04:21:26;;;;;;;12.63;4.25;;;;;;;;;;5028674;28;20416;-65
2022/12/09 04:23:53;;;;;;;11.60;4.07;;;;;;;;;;5020779;28;20483;-65
2022/12/09 04:26:21;;;;;;;8.90;3.97;;;;;;;;;;5018038;28;20774;-67
2022/12/09 04:28:48;;;;;;;8.85;3.25;;;;;;;;;;5019280;28;20045;-66
2022/12/09 04:31:16;;;;;;;7.60;3.53;;;;;;;;;;5019963;28;20060;-65
2022/12/09 04:33:43;;;;;;;11.00;3.83;;;;;;;;;;5019154;28;20635;-65
2022/12/09 04:36:11;;;;;;;6.63;3.00;;;;;;;;;;5019448;28;20046;-65
2022/12/09 04:38:37;;;;;;;6.78;2.78;;;;;;;;;;5019065;28;20079;-65
2022/12/09 04:41:04;;;;;;;6.65;2.45;;;;;;;;;;5019041;28;20068;-65
2022/12/09 04:43:31;;;;;;;7.78;2.78;;;;;;;;;;5018596;28;20514;-64
2022/12/09 04:46:01;;;;;;;9.95;3.78;;;;;;;;;;5033550;28;20863;-65
2022/12/09 04:48:28;;;;;;;13.70;3.58;;;;;;;;;;5037425;28;20494;-65
2022/12/09 04:50:55;;;;;;;11.93;4.07;;;;;;;;;;5019311;28;20502;-64
2022/12/09 04:53:22;;;;;;;9.88;3.17;;;;;;;;;;5018719;28;20072;-65
2022/12/09 04:55:48;;;;;;;9.60;3.40;;;;;;;;;;5019789;28;20063;-65
2022/12/09 04:58:15;;;;;;;9.15;2.72;;;;;;;;;;5019320;28;20138;-64
2022/12/09 05:00:42;;;;;;;9.90;3.08;;;;;;;;;;5018732;28;20037;-65
2022/12/09 05:03:08;;;;;;;8.80;2.95;;;;;;;;;;5018300;28;20048;-64
2022/12/09 05:05:39;;;;;;;9.98;3.10;;;;;;;;;;5018626;28;20041;-64
2022/12/09 05:08:07;;;;;;;8.25;2.97;;;;;;;;;;5019527;28;20040;-66
2022/12/09 05:10:33;;;;;;;11.63;3.58;;;;;;;;;;5017309;28;21718;-65
2022/12/09 05:13:00;;;;;;;10.15;2.88;;;;;;;;;;5019095;28;20591;-64
2022/12/09 05:15:27;;;;;;;6.68;2.90;;;;;;;;;;5018608;28;20041;-66
2022/12/09 05:17:54;;;;;;;8.43;2.83;;;;;;;;;;5014663;28;20131;-66
2022/12/09 05:20:26;;;;;;;12.30;3.58;;;;;;;;;;5019019;28;20041;-65
2022/12/09 05:22:55;;;;;;;12.10;2.72;;;;;;;;;;5017005;28;20041;-67
2022/12/09 05:25:23;;;;;;;10.00;3.35;;;;;;;;;;5015613;28;20517;-65
2022/12/09 05:27:49;;;;;;;8.93;2.65;;;;;;;;;;5018854;28;21726;-65
2022/12/09 05:30:16;;;;;;;7.22;2.90;;;;;;;;;;5018520;28;20513;-65
2022/12/09 05:32:43;;;;;;;12.38;3.17;;;;;;;;;;5017423;28;20052;-65
2022/12/09 05:35:09;;;;;;;6.15;2.50;;;;;;;;;;5019061;28;20040;-65
2022/12/09 05:37:36;;;;;;;6.38;2.63;;;;;;;;;;5017976;28;20506;-64
2022/12/09 05:40:03;;;;;;;6.93;3.10;;;;;;;;;;5018295;28;20056;-65
2022/12/09 05:42:30;;;;;;;12.50;3.33;;;;;;;;;;5017709;28;20048;-65
2022/12/09 05:44:56;;;;;;;11.50;3.13;;;;;;;;;;5019331;28;20064;-64
2022/12/09 05:47:23;;;;;;;8.13;2.75;;;;;;;;;;5018597;28;20041;-65
2022/12/09 05:49:50;;;;;;;5.72;2.63;;;;;;;;;;5018845;28;20523;-66
2022/12/09 05:52:16;;;;;;;8.15;3.08;;;;;;;;;;5018333;28;20053;-64
2022/12/09 05:54:43;;;;;;;7.18;2.92;;;;;;;;;;5039986;28;20048;-64
2022/12/09 05:57:09;;;;;;;6.88;3.13;;;;;;;;;;5020418;28;20064;-64
2022/12/09 05:59:36;;;;;;;13.68;3.72;;;;;;;;;;5018156;28;20041;-64
2022/12/09 06:02:03;;;;;;;10.23;3.28;;;;;;;;;;5019292;28;20080;-64
2022/12/09 06:04:29;;;;;;;13.15;3.17;;;;;;;;;;5017480;28;20120;-65
2022/12/09 06:06:56;;;;;;;9.85;2.47;;;;;;;;;;5019352;28;20160;-64
2022/12/09 06:09:23;;;;;;;8.85;2.08;;;;;;;;;;5017839;28;20064;-65
2022/12/09 06:11:49;;;;;;;4.22;1.80;;;;;;;;;;5018433;28;20053;-65
2022/12/09 06:14:16;;;;;;;4.80;1.90;;;;;;;;;;5018805;28;20056;-64
2022/12/09 06:16:43;;;;;;;6.20;2.00;;;;;;;;;;5018936;28;20125;-65
2022/12/09 06:19:11;;;;;;;5.03;1.65;;;;;;;;;;5017923;28;20037;-65
2022/12/09 06:21:40;;;;;;;4.47;1.40;;;;;;;;;;5017043;28;20046;-65
2022/12/09 06:24:08;;;;;;;3.60;1.40;;;;;;;;;;5028866;28;20065;-65
2022/12/09 06:26:35;;;;;;;4.15;1.60;;;;;;;;;;5018165;28;20123;-65
2022/12/09 06:29:01;;;;;;;5.20;1.55;;;;;;;;;;5018361;28;20749;-65
2022/12/09 06:31:28;;;;;;;3.53;1.08;;;;;;;;;;5033133;28;20085;-65
2022/12/09 06:33:55;;;;;;;5.38;1.42;;;;;;;;;;5017791;28;20042;-63
2022/12/09 06:36:22;;;;;;;6.97;1.33;;;;;;;;;;5017942;28;20037;-64
2022/12/09 06:38:48;;;;;;;5.50;1.80;;;;;;;;;;5018236;28;20038;-64
2022/12/09 06:41:15;;;;;;;4.28;1.35;;;;;;;;;;5018349;28;20498;-64
2022/12/09 06:43:42;;;;;;;13.70;2.38;;;;;;;;;;5017311;28;20508;-66
2022/12/09 06:46:16;;;;;;;7.22;2.10;;;;;;;;;;5017795;28;20038;-64
2022/12/09 06:48:43;;;;;;;3.63;1.52;;;;;;;;;;5019244;28;20048;-64
2022/12/09 06:51:09;;;;;;;5.32;1.70;;;;;;;;;;5018002;28;20172;-64
2022/12/09 06:53:36;;;;;;;5.38;1.75;;;;;;;;;;5018525;28;20041;-64
2022/12/09 06:56:04;;;;;;;4.45;1.52;;;;;;;;;;5019551;28;20045;-65
2022/12/09 06:58:32;;;;;;;8.45;1.70;;;;;;;;;;5018821;28;20091;-65
2022/12/09 07:01:12;;;;;;;4.82;1.75;;;;;;;;;;5041181;28;20490;-64
2022/12/09 07:03:39;;;;;;;4.07;1.40;;;;;;;;;;5032909;28;20033;-65
2022/12/09 07:06:06;;;;;;;4.72;1.52;;;;;;;;;;5049829;28;21776;-66
2022/12/09 07:08:33;;;;;;;3.60;1.30;;;;;;;;;;5017986;28;20051;-66
2022/12/09 07:11:00;;;;;;;3.10;1.23;;;;;;;;;;5015736;28;20052;-66
2022/12/09 07:13:27;;;;;;;4.00;1.33;;;;;;;;;;5024322;28;20052;-68
2022/12/09 07:15:55;;;;;;;4.97;1.33;;;;;;;;;;5044188;28;20096;-65
2022/12/09 07:18:21;;;;;;;5.13;1.17;;;;;;;;;;5033633;28;20171;-66
2022/12/09 07:20:48;;;;;;;3.53;1.20;;;;;;;;;;5052453;28;20045;-66
2022/12/09 07:23:15;;;;;;;2.70;1.02;;;;;;;;;;5022869;28;20673;-65
2022/12/09 07:25:41;;;;;;;3.67;1.20;;;;;;;;;;5021778;28;20124;-64
2022/12/09 07:28:08;;;;;;;3.40;1.10;;;;;;;;;;5047862;28;20074;-65
2022/12/09 07:30:37;;;;;;;3.03;1.13;;;;;;;;;;5032300;28;20041;-65
2022/12/09 07:33:03;;;;;;;4.90;1.52;;;;;;;;;;5052833;28;20384;-71
2022/12/09 07:35:30;;;;;;;3.90;1.15;;;;;;;;;;5022468;28;20126;-65
2022/12/09 07:37:57;;;;;;;4.60;1.45;;;;;;;;;;5021542;28;20045;-66
2022/12/09 07:40:23;;;;;;;3.00;1.13;;;;;;;;;;5020671;28;20536;-66
2022/12/09 07:42:50;;;;;;;3.15;1.00;;;;;;;;;;5020781;28;20398;-65
2022/12/09 07:45:17;;;;;;;5.22;1.40;;;;;;;;;;5024458;28;20033;-65
2022/12/09 07:47:43;;;;;;;3.15;1.13;;;;;;;;;;5020023;28;20041;-66
2022/12/09 07:50:11;;;;;;;5.63;1.23;;;;;;;;;;5021412;28;20038;-64
2022/12/09 07:52:37;;;;;;;2.53;1.05;;;;;;;;;;5051434;28;20514;-64
2022/12/09 07:55:04;;;;;;;4.65;1.38;;;;;;;;;;5018247;28;20037;-65
2022/12/09 07:57:31;;;;;;;3.00;1.08;;;;;;;;;;5021566;28;20037;-64
2022/12/09 07:59:57;;;;;;;4.05;1.25;;;;;;;;;;5022859;28;20041;-64
2022/12/09 08:02:24;;;;;;;6.90;1.30;;;;;;;;;;5020544;28;20046;-64
2022/12/09 08:04:51;;;;;;;3.53;1.27;;;;;;;;;;5022806;28;20053;-64
2022/12/09 08:07:18;;;;;;;3.28;1.23;;;;;;;;;;5022167;28;20036;-64
2022/12/09 08:09:44;;;;;;;4.40;1.40;;;;;;;;;;5021918;28;20041;-66
2022/12/09 08:12:11;;;;;;;4.38;1.73;;;;;;;;;;5021443;28;20045;-64
2022/12/09 08:14:38;;;;;;;3.40;1.30;;;;;;;;;;5023283;28;20178;-64
2022/12/09 08:17:05;;;;;;;4.70;1.50;;;;;;;;;;5023382;28;20045;-65
2022/12/09 08:19:31;;;;;;;3.95;1.80;;;;;;;;;;5031211;28;20068;-64
2022/12/09 08:21:58;;;;;;;3.95;1.58;;;;;;;;;;5021341;28;20037;-64
2022/12/09 08:24:25;;;;;;;5.28;1.50;;;;;;;;;;5020713;28;20045;-64
2022/12/09 08:26:51;;;;;;;5.13;1.27;;;;;;;;;;5020559;28;20601;-65
2022/12/09 08:29:19;;;;;;;4.50;1.52;;;;;;;;;;5020510;28;20044;-66
2022/12/09 08:31:45;;;;;;;4.13;1.45;;;;;;;;;;5020771;28;20041;-65
2022/12/09 08:34:12;;;;;;;5.15;1.42;;;;;;;;;;5051221;28;20112;-66
2022/12/09 08:36:40;;;;;;;4.65;1.55;;;;;;;;;;5051735;28;20124;-65
2022/12/09 08:39:06;;;;;;;3.78;1.38;;;;;;;;;;5035802;28;20049;-65
2022/12/09 08:41:34;;;;;;;7.82;1.65;;;;;;;;;;5050758;28;20041;-65
2022/12/09 08:44:05;;;;;;;4.40;1.25;;;;;;;;;;5039561;28;20049;-65
2022/12/09 08:46:33;;;;;;;2.65;1.00;;;;;;;;;;5040623;28;20520;-65
2022/12/09 08:49:03;;;;;;;3.83;1.17;;;;;;;;;;5039065;28;20122;-65
2022/12/09 08:51:30;;;;;;;4.15;1.25;;;;;;;;;;5039508;28;20041;-64
2022/12/09 08:53:57;;;;;;;3.33;1.20;;;;;;;;;;5039659;28;21815;-64
2022/12/09 08:56:24;;;;;;;4.13;1.33;;;;;;;;;;5039145;28;20047;-65
2022/12/09 08:58:51;;;;;;;2.90;0.95;;;;;;;;;;5039055;28;20041;-64
2022/12/09 09:01:18;;;;;;;3.00;1.02;;;;;;;;;;5039166;28;20033;-64
2022/12/09 09:03:45;;;;;;;3.58;1.10;;;;;;;;;;5039449;28;21118;-65
2022/12/09 09:06:13;;;;;;;3.90;1.02;;;;;;;;;;5039539;28;20043;-66
2022/12/09 09:08:39;;;;;;;5.65;1.17;;;;;;;;;;5038592;28;20674;-65
2022/12/09 09:11:13;;;;;;;2.60;0.90;;;;;;;;;;5038625;28;20135;-65
2022/12/09 09:13:41;;;;;;;4.50;1.17;;;;;;;;;;5039337;28;20052;-65
2022/12/09 09:16:09;;;;;;;2.83;0.80;;;;;;;;;;5040149;28;20443;-65
2022/12/09 09:18:36;;;;;;;3.10;1.08;;;;;;;;;;5037508;28;20064;-65
2022/12/09 09:21:03;;;;;;;1.98;0.77;;;;;;;;;;5050631;28;20025;-65
2022/12/09 09:23:29;;;;;;;2.40;0.70;;;;;;;;;;5048647;28;20408;-65
2022/12/09 09:25:56;;;;;;;3.55;1.02;;;;;;;;;;5037784;28;20064;-65
2022/12/09 09:28:23;;;;;;;2.30;0.82;;;;;;;;;;5039155;28;20132;-65
2022/12/09 09:30:49;;;;;;;3.30;0.80;;;;;;;;;;5053186;28;20561;-64
2022/12/09 09:33:17;;;;;;;6.32;1.00;;;;;;;;;;5039036;28;20053;-64
2022/12/09 09:35:53;;;;;;;2.08;0.70;;;;;;;;;;5039162;28;20523;-64
2022/12/09 09:38:20;;;;;;;2.25;0.70;;;;;;;;;;5047684;28;20048;-64
2022/12/09 09:40:47;;;;;;;2.17;0.80;;;;;;;;;;5039647;28;20041;-64
2022/12/09 09:43:17;;;;;;;2.22;0.77;;;;;;;;;;5049433;28;20029;-64
2022/12/09 09:45:45;;;;;;;2.88;1.05;;;;;;;;;;5019201;28;20045;-64
2022/12/09 09:48:15;;;;;;;2.53;0.82;;;;;;;;;;5018628;28;20129;-64
2022/12/09 09:50:42;;;;;;;2.65;1.10;;;;;;;;;;5018086;28;20194;-64
2022/12/09 09:53:19;;;;;;;2.13;0.60;;;;;;;;;;5019402;28;20152;-64
2022/12/09 09:55:52;;;;;;;3.15;0.70;;;;;;;;;;5028691;28;20179;-65
2022/12/09 09:58:25;;;;;;;3.72;1.15;;;;;;;;;;5020181;28;20159;-65
2022/12/09 10:00:56;;;;;;;5.47;0.80;;;;;;;;;;5018763;28;20041;-65
2022/12/09 10:03:32;;;;;;;3.15;0.90;;;;;;;;;;5018091;28;20136;-64
2022/12/09 10:06:05;;;;;;;1.52;0.60;;;;;;;;;;5018899;28;20037;-64
2022/12/09 10:08:35;;;;;;;3.35;0.90;;;;;;;;;;5017362;28;20450;-64
2022/12/09 10:11:01;;;;;;;2.53;0.82;;;;;;;;;;5019934;28;20052;-64
2022/12/09 10:13:47;;;;;;;1.65;0.60;;;;;;;;;;5018746;28;20048;-64
2022/12/09 10:16:16;;;;;;;1.98;0.70;;;;;;;;;;5018793;28;20061;-64
2022/12/09 10:18:55;;;;;;;2.20;0.63;;;;;;;;;;5018530;28;20129;-65
2022/12/09 10:21:22;;;;;;;3.58;0.90;;;;;;;;;;5018185;28;20101;-65
2022/12/09 10:23:49;;;;;;;1.85;0.80;;;;;;;;;;5017837;28;20044;-64
2022/12/09 10:26:22;;;;;;;2.28;0.70;;;;;;;;;;5018408;28;20104;-64
2022/12/09 10:28:52;;;;;;;1.83;0.65;;;;;;;;;;5017028;28;20045;-64
2022/12/09 10:31:19;;;;;;;1.63;0.55;;;;;;;;;;5017876;28;20521;-65
2022/12/09 10:33:45;;;;;;;2.28;0.60;;;;;;;;;;5019180;28;20033;-64
2022/12/09 10:36:32;;;;;;;1.88;0.70;;;;;;;;;;5018278;28;20118;-64
2022/12/09 10:38:59;;;;;;;1.50;0.60;;;;;;;;;;5017907;28;20037;-64
2022/12/09 10:44:27;;;;;;;1.55;0.60;;;;;;;;;;5017723;28;20051;-65
2022/12/09 10:47:07;;;;;;;1.73;0.63;;;;;;;;;;5018385;28;20128;-65
2022/12/09 10:49:35;;;;;;;3.05;0.98;;;;;;;;;;5041118;28;20111;-65
2022/12/09 10:52:03;;;;;;;2.13;0.65;;;;;;;;;;5020984;28;20446;-66
2022/12/09 10:54:30;;;;;;;2.00;0.70;;;;;;;;;;5021650;28;20090;-65
2022/12/09 10:57:02;;;;;;;1.85;0.57;;;;;;;;;;5023353;28;20038;-66
2022/12/09 10:59:30;;;;;;;0.80;0.40;;;;;;;;;;5020944;28;20042;-65
2022/12/09 11:01:58;;;;;;;2.08;0.80;;;;;;;;;;5022450;28;20037;-64
2022/12/09 11:04:27;;;;;;;1.95;0.60;;;;;;;;;;5021364;28;20037;-64
2022/12/09 11:06:55;;;;;;;2.78;1.02;;;;;;;;;;5022341;28;20085;-65
2022/12/09 11:09:27;;;;;;;1.23;0.50;;;;;;;;;;5022540;28;20052;-64
2022/12/09 11:11:54;;;;;;;2.53;0.85;;;;;;;;;;5023014;28;20052;-64
2022/12/09 11:14:23;;;;;;;7.22;0.70;;;;;;;;;;5044579;28;20087;-64
2022/12/09 11:16:50;;;;;;;4.75;0.80;;;;;;;;;;5022023;28;20097;-64
2022/12/09 11:19:17;;;;;;;1.33;0.50;;;;;;;;;;5021325;28;20112;-64
2022/12/09 11:21:44;;;;;;;1.15;0.50;;;;;;;;;;5031893;28;20046;-64
2022/12/09 11:24:19;;;;;;;1.60;0.65;;;;;;;;;;5036501;28;20052;-65
2022/12/09 11:26:46;;;;;;;2.42;0.60;;;;;;;;;;5021999;28;20045;-65
2022/12/09 11:29:17;;;;;;;2.65;0.75;;;;;;;;;;5022879;28;20037;-64
2022/12/09 11:31:45;;;;;;;0.85;0.40;;;;;;;;;;5030453;28;20053;-64
2022/12/09 11:34:29;;;;;;;2.15;0.73;;;;;;;;;;5021476;28;20045;-64
2022/12/09 11:36:57;;;;;;;2.00;0.70;;;;;;;;;;5021908;28;20060;-65
2022/12/09 11:39:28;;;;;;;3.72;0.88;;;;;;;;;;5020744;28;20045;-65
2022/12/09 11:45:00;;;;;;;3.47;0.70;;;;;;;;;;5020448;28;20055;-66
2022/12/09 11:47:33;;;;;;;4.00;0.73;;;;;;;;;;5021089;28;20949;-66
2022/12/09 11:50:41;;;;;;;1.88;0.65;;;;;;;;;;5019160;28;20103;-65
2022/12/09 11:53:07;;;;;;;2.10;0.60;;;;;;;;;;5034836;28;20049;-65
2022/12/09 11:55:35;;;;;;;4.60;0.77;;;;;;;;;;5035292;28;20114;-65
2022/12/09 11:58:05;;;;;;;2.85;0.90;;;;;;;;;;5028021;28;20840;-65
2022/12/09 12:00:41;;;;;;;2.25;0.68;;;;;;;;;;5019377;28;20489;-65
2022/12/09 12:03:46;;;;;;;1.48;0.52;;;;;;;;;;5019120;28;20152;-65
2022/12/09 12:06:17;;;;;;;1.67;0.50;;;;;;;;;;5000889;28;20042;-66
2022/12/09 12:08:47;;;;;;;1.95;0.55;;;;;;;;;;5003065;28;20053;-66
2022/12/09 12:11:34;;;;;;;1.88;0.55;;;;;;;;;;5028313;28;20048;-65
2022/12/09 12:14:03;;;;;;;1.33;0.47;;;;;;;;;;5019572;28;20050;-65
2022/12/09 12:16:52;;;;;;;1.52;0.50;;;;;;;;;;5019527;28;20376;-66
2022/12/09 12:19:35;;;;;;;0.85;0.40;;;;;;;;;;5026801;28;20057;-67
2022/12/09 12:22:27;;;;;;;1.65;0.57;;;;;;;;;;5019798;28;20033;-66
2022/12/09 12:25:10;;;;;;;1.50;0.57;;;;;;;;;;5027745;28;20057;-65
2022/12/09 12:27:39;;;;;;;0.73;0.40;;;;;;;;;;5020024;28;20156;-65
2022/12/09 12:30:27;;;;;;;0.52;0.35;;;;;;;;;;5019662;28;20274;-65
2022/12/09 12:33:03;;;;;;;1.23;0.40;;;;;;;;;;5026556;28;20183;-64
2022/12/09 12:35:48;;;;;;;1.58;0.50;;;;;;;;;;5070003;28;20366;-67
2022/12/09 12:38:14;;;;;;;1.45;0.50;;;;;;;;;;5039314;28;20040;-66
2022/12/09 12:40:47;;;;;;;0.73;0.38;;;;;;;;;;5040434;28;20102;-65
2022/12/09 12:46:35;;;;;;;1.63;0.50;;;;;;;;;;5024310;28;20297;-65
2022/12/09 12:49:20;;;;;;;1.38;0.50;;;;;;;;;;5045455;28;20040;-65
2022/12/09 12:51:58;;;;;;;1.67;0.50;;;;;;;;;;5038046;28;20045;-68
2022/12/09 12:54:34;;;;;;;0.88;0.40;;;;;;;;;;5015678;28;20216;-65
2022/12/09 12:57:08;;;;;;;2.17;0.52;;;;;;;;;;5018562;28;20099;-63
2022/12/09 12:59:35;;;;;;;1.23;0.43;;;;;;;;;;5018150;28;20128;-62
2022/12/09 13:02:16;;;;;;;1.67;0.68;;;;;;;;;;5017574;28;20042;-65
2022/12/09 13:04:53;;;;;;;1.70;0.57;;;;;;;;;;5018152;28;20577;-63
2022/12/09 13:07:29;;;;;;;1.17;0.40;;;;;;;;;;5018210;28;20077;-65
2022/12/09 13:09:56;;;;;;;1.98;0.68;;;;;;;;;;5018842;28;20052;-66
2022/12/09 13:12:52;;;;;;;1.42;0.50;;;;;;;;;;5017032;28;20052;-65
2022/12/09 13:15:16;;;;;;;1.88;0.60;;;;;;;;;;5019615;28;20041;-65
2022/12/09 13:17:44;;;;;;;4.00;0.73;;;;;;;;;;5019078;28;20099;-65
2022/12/09 13:20:16;;;;;;;2.13;0.60;;;;;;;;;;5018015;28;20138;-65
2022/12/09 13:22:49;;;;;;;1.88;0.60;;;;;;;;;;5018436;28;20042;-64
2022/12/09 13:25:19;;;;;;;1.73;0.50;;;;;;;;;;5019487;28;20049;-65
2022/12/09 13:27:50;;;;;;;1.48;0.50;;;;;;;;;;5019621;28;20042;-62
2022/12/09 13:30:22;;;;;;;2.00;0.57;;;;;;;;;;5018755;28;20041;-65
2022/12/09 13:33:04;;;;;;;2.55;0.60;;;;;;;;;;5015518;28;20510;-66
2022/12/09 13:35:53;;;;;;;1.73;0.60;;;;;;;;;;5016799;28;20149;-65
2022/12/09 13:38:35;;;;;;;1.85;0.60;;;;;;;;;;5017466;28;20132;-66
2022/12/09 13:41:21;;;;;;;3.00;0.75;;;;;;;;;;5017998;28;20791;-65
2022/12/09 13:43:48;;;;;;;1.58;0.60;;;;;;;;;;5027240;28;20101;-66
2022/12/09 13:46:20;;;;;;;1.70;0.60;;;;;;;;;;5018123;28;20049;-65
2022/12/09 13:48:47;;;;;;;2.75;1.00;;;;;;;;;;5041261;28;20166;-66
2022/12/09 13:51:15;;;;;;;4.25;0.88;;;;;;;;;;5022075;28;20069;-65
2022/12/09 13:54:06;;;;;;;2.60;0.70;;;;;;;;;;5077635;28;20094;-65
2022/12/09 13:56:34;;;;;;;2.10;0.63;;;;;;;;;;5066601;28;20545;-65
2022/12/09 13:59:19;;;;;;;1.60;0.60;;;;;;;;;;5055274;28;20146;-64
2022/12/09 14:01:53;;;;;;;3.33;0.70;;;;;;;;;;5050696;28;20148;-66
2022/12/09 14:04:23;;;;;;;1.70;0.60;;;;;;;;;;5054223;28;20102;-66
2022/12/09 14:07:06;;;;;;;1.70;0.70;;;;;;;;;;5056292;28;20101;-66
2022/12/09 14:09:32;;;;;;;2.55;0.70;;;;;;;;;;5054736;28;20174;-66
2022/12/09 14:12:01;;;;;;;3.25;0.90;;;;;;;;;;5054565;28;20040;-64
2022/12/09 14:14:28;;;;;;;7.03;0.70;;;;;;;;;;5049792;28;20309;-66
2022/12/09 14:16:55;;;;;;;2.95;0.90;;;;;;;;;;5040028;28;20119;-66
2022/12/09 14:19:30;;;;;;;1.85;0.80;;;;;;;;;;5053625;28;20072;-67
2022/12/09 14:22:15;;;;;;;3.13;0.82;;;;;;;;;;5053959;28;20398;-63
2022/12/09 14:24:42;;;;;;;3.17;0.80;;;;;;;;;;5041320;28;20037;-63
2022/12/09 14:27:12;;;;;;;2.95;1.00;;;;;;;;;;5013233;28;20033;-66
2022/12/09 14:30:02;;;;;;;3.20;0.70;;;;;;;;;;5016463;28;20146;-66
2022/12/09 14:32:32;;;;;;;5.90;1.13;;;;;;;;;;5037766;28;20052;-66
2022/12/09 14:35:11;;;;;;;3.15;0.90;;;;;;;;;;5045737;28;20136;-65
2022/12/09 14:38:20;;;;;;;2.50;1.00;;;;;;;;;;5032471;28;20135;-66
2022/12/09 14:41:26;;;;;;;3.05;1.38;;;;;;;;;;5028532;28;20036;-67
2022/12/09 14:44:05;;;;;;;2.95;1.02;;;;;;;;;;5010396;28;20063;-65
2022/12/09 14:46:36;;;;;;;3.00;0.90;;;;;;;;;;5031056;28;20201;-65
2022/12/09 14:49:22;;;;;;;2.53;0.77;;;;;;;;;;5032770;28;20099;-64
2022/12/09 14:51:50;;;;;;;4.47;0.80;;;;;;;;;;5028351;28;20095;-62
2022/12/09 14:54:21;;;;;;;1.95;0.57;;;;;;;;;;5029074;28;20072;-61
2022/12/09 14:56:49;;;;;;;5.03;1.30;;;;;;;;;;5016798;28;20209;-61
2022/12/09 14:59:21;;;;;;;2.53;0.88;;;;;;;;;;5019385;28;20504;-64
2022/12/09 15:01:55;;;;;;;4.50;0.63;;;;;;;;;;5028514;28;20047;-65
2022/12/09 15:04:31;;;;;;;2.10;0.73;;;;;;;;;;5010403;28;20033;-67
2022/12/09 15:07:16;;;;;;;2.45;0.80;;;;;;;;;;5027557;28;20041;-64
2022/12/09 15:09:49;;;;;;;1.85;0.70;;;;;;;;;;5047846;28;20055;-65